Hestrud (Nord, France) - 208 m
Donnes mto: Actuelle lundi, 23/10/2017 08:17
Date Horaire Temp Out Temp. E. min Temp. E. max Temp. Sol 1 Hum Out Hum. Sol 1 Press Rain Wind Dir Dir Solar Ev.Tr. UV Hi Solar Rad Dew Point Windchill Wind (Gust)
23/10/2017 08:17 7,7 C 7,7 C 7,7 C 7,8 C 98 % 40 cb 1019,8 hPa 0,0 mm 9,7 km/h (2 Bft) S-SO 202 0 min 0,000 mm 0,0 UV-I 0 W/m 7,4 C 5,2 C 12,9 km/h (3 Bft)
23/10/2017 07:17 7,3 C 7,3 C 7,3 C 6,7 C 97 % 40 cb 1019,7 hPa 0,0 mm 8,0 km/h (2 Bft) SO 225 0 min 0,000 mm 0,0 UV-I 0 W/m 6,9 C 6,0 C 11,3 km/h (2 Bft)
23/10/2017 06:17 7,2 C 7,2 C 7,2 C 7,2 C 98 % 40 cb 1019,7 hPa 0,0 mm 6,4 km/h (2 Bft) SO 225 0 min 0,000 mm 0,0 UV-I 0 W/m 6,9 C 7,2 C 11,3 km/h (2 Bft)
23/10/2017 05:17 6,1 C 6,1 C 6,1 C 5,6 C 97 % 39 cb 1019,4 hPa 0,0 mm 6,4 km/h (2 Bft) SO 225 0 min 0,000 mm 0,0 UV-I 0 W/m 5,7 C 6,1 C 9,7 km/h (2 Bft)
23/10/2017 04:17 6,3 C 6,3 C 6,3 C 5,6 C 96 % 39 cb 1019,0 hPa 0,0 mm 6,4 km/h (2 Bft) SO 225 0 min 0,000 mm 0,0 UV-I 0 W/m 5,7 C 6,3 C 9,7 km/h (2 Bft)
23/10/2017 03:17 6,4 C 6,4 C 6,4 C 6,1 C 96 % 38 cb 1018,8 hPa 0,0 mm 8,0 km/h (2 Bft) O-SO 247 0 min 0,000 mm 0,0 UV-I 0 W/m 5,8 C 5,1 C 9,7 km/h (2 Bft)
23/10/2017 02:17 6,8 C 6,8 C 6,8 C 6,1 C 96 % 38 cb 1018,7 hPa 0,0 mm 9,7 km/h (2 Bft) SO 225 0 min 0,000 mm 0,0 UV-I 0 W/m 6,2 C 4,3 C 12,9 km/h (3 Bft)
23/10/2017 01:17 6,4 C 6,4 C 6,4 C 6,1 C 95 % 37 cb 1018,4 hPa 0,0 mm 8,0 km/h (2 Bft) SO 225 0 min 0,000 mm 0,0 UV-I 0 W/m 5,7 C 5,1 C 12,9 km/h (3 Bft)
23/10/2017 00:17 6,8 C 6,8 C 6,8 C 6,1 C 93 % 37 cb 1018,2 hPa 0,0 mm 6,4 km/h (2 Bft) SO 225 0 min 0,000 mm 0,0 UV-I 0 W/m 5,7 C 6,8 C 9,7 km/h (2 Bft)
22/10/2017 23:17 7,2 C 7,2 C 7,2 C 6,1 C 90 % 36 cb 1017,7 hPa 0,0 mm 6,4 km/h (2 Bft) SO 225 0 min 0,000 mm 0,0 UV-I 0 W/m 5,7 C 7,2 C 8,0 km/h (2 Bft)
22/10/2017 22:17 7,7 C 7,7 C 7,7 C 7,2 C 92 % 36 cb 1017,3 hPa 0,0 mm 9,7 km/h (2 Bft) SO 225 0 min 0,000 mm 0,0 UV-I 0 W/m 6,5 C 5,2 C 12,9 km/h (3 Bft)
22/10/2017 21:17 7,6 C 7,6 C 7,6 C 7,2 C 93 % 36 cb 1017,0 hPa 0,0 mm 3,2 km/h (1 Bft) SO 225 0 min 0,000 mm 0,0 UV-I 0 W/m 6,5 C 7,6 C 8,0 km/h (2 Bft)
22/10/2017 20:17 7,6 C 7,6 C 7,6 C 6,7 C 92 % 35 cb 1016,7 hPa 0,0 mm 0,0 km/h (0 Bft) N 0 0 min 0,000 mm 0,0 UV-I 0 W/m 6,4 C 7,6 C 0,0 km/h (0 Bft)
22/10/2017 19:17 8,2 C 8,2 C 8,2 C 7,8 C 93 % 35 cb 1016,1 hPa 0,0 mm 8,0 km/h (2 Bft) O-SO 247 0 min 0,000 mm 0,0 UV-I 0 W/m 7,1 C 7,0 C 9,7 km/h (2 Bft)
22/10/2017 18:17 8,8 C 8,8 C 8,8 C 8,3 C 93 % 35 cb 1015,4 hPa 0,0 mm 9,7 km/h (2 Bft) O-SO 247 0 min 0,025 mm 0,0 UV-I 8 W/m 7,7 C 6,5 C 14,5 km/h (3 Bft)
22/10/2017 17:17 9,3 C 9,3 C 9,3 C 8,9 C 94 % 35 cb 1015,0 hPa 0,4 mm 0,0 km/h (0 Bft) N 0 0 min 0,025 mm 0,0 UV-I 35 W/m 8,4 C 9,3 C 0,0 km/h (0 Bft)
22/10/2017 16:17 9,5 C 9,5 C 9,5 C 9,4 C 92 % 35 cb 1014,7 hPa 0,0 mm 9,7 km/h (2 Bft) O-SO 247 0 min 0,051 mm 0,0 UV-I 53 W/m 8,3 C 7,2 C 16,1 km/h (3 Bft)
22/10/2017 15:17 9,8 C 9,8 C 9,9 C 9,4 C 92 % 34 cb 1014,2 hPa 2,2 mm 11,3 km/h (2 Bft) O-SO 247 8 min 0,076 mm 0,6 UV-I 128 W/m 8,6 C 6,6 C 14,5 km/h (3 Bft)
22/10/2017 14:17 10,9 C 10,9 C 10,9 C 10,0 C 86 % 35 cb 1013,9 hPa 0,2 mm 12,9 km/h (3 Bft) SO 225 33 min 0,152 mm 0,0 UV-I 83 W/m 8,7 C 7,1 C 17,7 km/h (3 Bft)
22/10/2017 13:17 10,9 C 10,9 C 10,9 C 10,6 C 88 % 35 cb 1013,5 hPa 0,0 mm 12,9 km/h (3 Bft) O-SO 247 42 min 0,127 mm 0,7 UV-I 111 W/m 9,0 C 7,1 C 19,3 km/h (3 Bft)
22/10/2017 12:17 10,0 C 10,0 C 10,0 C 10,0 C 94 % 35 cb 1013,4 hPa 0,0 mm 14,5 km/h (3 Bft) SO 225 10 min 0,051 mm 1,2 UV-I 183 W/m 9,1 C 5,3 C 20,9 km/h (4 Bft)
22/10/2017 11:17 9,1 C 9,1 C 9,1 C 8,9 C 96 % 34 cb 1013,1 hPa 0,0 mm 12,9 km/h (3 Bft) SO 225 4 min 0,025 mm 0,7 UV-I 93 W/m 8,5 C 5,0 C 16,1 km/h (3 Bft)
22/10/2017 10:17 8,2 C 8,2 C 8,2 C 8,3 C 97 % 34 cb 1012,7 hPa 0,4 mm 17,7 km/h (3 Bft) SO 225 0 min 0,025 mm 0,0 UV-I 37 W/m 7,8 C 1,8 C 24,1 km/h (4 Bft)
22/10/2017 09:17 8,1 C 8,1 C 8,1 C 7,8 C 96 % 36 cb 1012,1 hPa 0,8 mm 17,7 km/h (3 Bft) SO 225 0 min 0,000 mm 0,0 UV-I 5 W/m 7,5 C 1,7 C 24,1 km/h (4 Bft)
22/10/2017 09:00 8,1 C 8,1 C 8,1 C 7,8 C 96 % 72 cb 1012,1 hPa 0,0 mm 12,9 km/h (3 Bft) SO 225 0 min 0,000 mm 0,0 UV-I 6 W/m 7,5 C 3,8 C 17,7 km/h (3 Bft)
_ Min-Heure 04:50 04:50 04:53 00:48 14:04 09:31 09:15 - 16:52 - - - - - - 01:02 09:12 16:53
Minimum _ 6,0 C 6,0 C 6,0 C 5,6 C 81 % 34 cb 1012,0 hPa - 0,0 km/h (0 Bft) - - - - - - 5,4 C -0,5 C 0,0 km/h (0 Bft)
_ Max-Heure 13:55 13:56 13:55 13:39 05:41 09:00 08:02 14:59 09:12 - - 11:06 14:00 13:37 13:51 12:25 15:01 09:27
Maximum _ 11,9 C 11,9 C 11,9 C 11,1 C 98 % 72 cb 1020,2 hPa 0,4 mm 24,1 km/h
SO (4 Bft)
- - 1 min 0,152 mm 1,8 UV-I 605 W/m 9,5 C 10,1 C 41,8 km/h
O-SO (6 Bft)
Moyenne _ 8,1 C 8,1 C 8,1 C 7,7 C 94 % 39 cb 1016,1 hPa #4,0 mm 9,8 km/h (2 Bft) SO - #0 min. #0,000 mm 0,0 UV-I 0 W/m 7,2 C 5,7 C 14,1 km/h (3 Bft)